• Join FlightAware (Why Join?)
  • Login
  • US Flag 
10:58AM EDT


 

Airport Tracker/Info


-or-


 

Live Flight TrackerFlight Track Log ✈ VNR160 ✈ 20-Apr-2013 ✈ KTPA - KBOS

Flight Track Log - Related Links

Times and Time Zones

All times are in EDT time to prevent confusion due to time zone crossing. See the VNR160 flight status page for this flight to view local times or setup timezone preferences in your user account.

Time Position Orientation Groundspeed Altitude Reporting Facility
EDT Latitude Longitude Course Direction KTS MPH feet Rate Location/Type
09:35PM 28.0333 -82.5667 North 181 208 2,300  Level Tampa TRACON
09:37PM 28.1581 -82.6100 343° North 215 247 6,200 1,800 Climbing Jacksonville Center
09:38PM 28.2144 -82.6242 348° North 209 241 8,300 1,980 Climbing Jacksonville Center
09:39PM 28.2769 -82.6333 353° North 209 241 10,200 1,920 Climbing Jacksonville Center
09:40PM 28.5973 -82.5333 North  Level FlightAware Approximate
09:40PM 28.3375 -82.6472 349° North 215 247 12,200  Level Jacksonville Center
09:41PM 28.4042 -82.6519 356° North 226 260 13,900 1,680 Climbing Jacksonville Center
09:42PM 28.4753 -82.6494 North 236 272 15,600 1,800 Climbing Jacksonville Center
09:43PM 28.5461 -82.6444 North 247 284 17,500 1,560 Climbing Jacksonville Center
09:44PM 28.6172 -82.6394 North 247 284 18,800 1,320 Climbing Jacksonville Center
09:45PM 28.6903 -82.6369 North 257 296 20,200 1,380 Climbing Jacksonville Center
09:46PM 28.7592 -82.6319 North 262 302 21,600 1,380 Climbing Jacksonville Center
09:47PM 28.8383 -82.6294 North 274 315 23,000 1,260 Climbing Jacksonville Center
09:48PM 28.9197 -82.6244 North 274 315 24,200 1,140 Climbing Jacksonville Center
09:49PM 29.0075 -82.6219 North 292 336 25,300 1,080 Climbing Jacksonville Center
09:50PM 29.0972 -82.6169 North 306 352 26,400 1,140 Climbing Jacksonville Center
09:51PM 29.1869 -82.6119 North 312 359 27,600 1,140 Climbing Jacksonville Center
09:52PM 29.2767 -82.6069 North 317 365 28,700 1,020 Climbing Jacksonville Center
09:53PM 29.3683 -82.6042 North 317 365 29,700 960 Climbing Jacksonville Center
09:54PM 29.4603 -82.5992 North 322 371 30,700 960 Climbing Jacksonville Center
09:55PM 29.5542 -82.5942 North 327 376 31,700 780 Climbing Jacksonville Center
09:56PM 29.6481 -82.5892 North 327 376 32,300 600 Climbing Jacksonville Center
09:57PM 29.7464 -82.5864 North 332 382 32,900 300 Climbing Jacksonville Center
09:58PM 29.8444 -82.5814 North 342 394 33,000  Climbing Jacksonville Center
09:59PM 29.9531 -82.5761 North 365 420 33,000  Level Jacksonville Center
10:00PM 30.0636 -82.5733 North 376 433 33,000  Level Jacksonville Center
10:01PM 30.1742 -82.5681 North 384 442 33,000  Level Jacksonville Center
10:02PM 30.2869 -82.5653 North 389 448 33,000  Level Jacksonville Center
10:03PM 30.3997 -82.5578 North 394 453 33,000  Level Jacksonville Center
10:04PM 30.5125 -82.5503 North 399 459 33,000  Level Jacksonville Center
10:05PM 30.6208 -82.5017 21° North 404 465 33,000  Level Jacksonville Center
10:06PM 30.7167 -82.4167 37° Northeast 415 478 33,000  Level Jacksonville Center
10:07PM 30.8122 -82.3267 39° Northeast 420 483 33,000  Level Jacksonville Center
10:08PM 30.9100 -82.2364 38° Northeast 433 498 33,000  Level Jacksonville Center
10:09PM 31.0139 -82.1411 38° Northeast 438 504 33,000  Level Jacksonville Center
10:10PM 31.1094 -82.0481 40° Northeast 444 511 33,000  Level Jacksonville Center
10:11PM 31.2069 -81.9550 39° Northeast 438 504 33,000  Level Jacksonville Center
10:12PM 31.3022 -81.8642 39° Northeast 438 504 33,000  Level Jacksonville Center
10:13PM 31.3994 -81.7731 39° Northeast 444 511 33,000  Level Jacksonville Center
10:14PM 31.4947 -81.6792 40° Northeast 444 511 33,000  Level Jacksonville Center
10:15PM 31.5836 -81.5950 39° Northeast 449 517 33,000  Level Jacksonville Center
10:16PM 31.6892 -81.4936 39° Northeast 444 511 33,000  Level Jacksonville Center
10:17PM 31.7778 -81.4067 40° Northeast 444 511 33,000  Level Jacksonville Center
10:18PM 31.8706 -81.3147 40° Northeast 444 511 33,000  Level Jacksonville Center
10:19PM 31.9697 -81.2200 39° Northeast 444 511 33,000  Level Jacksonville Center
10:20PM 32.0664 -81.1250 40° Northeast 444 511 33,000  Level Jacksonville Center
10:21PM 32.1756 -81.0222 39° Northeast 444 511 33,000  Level Jacksonville Center
10:22PM 32.2622 -80.9394 39° Northeast 444 511 33,000  Level Jacksonville Center
10:23PM 32.3650 -80.8364 40° Northeast 438 504 33,000  Level Jacksonville Center
10:24PM 32.4511 -80.7508 40° Northeast 443 510 33,000  Level Jacksonville Center
10:25PM 32.5456 -80.6550 41° Northeast 443 510 33,000  Level Jacksonville Center
10:26PM 32.6400 -80.5636 39° Northeast 443 510 33,000  Level Jacksonville Center
10:27PM 32.7361 -80.4675 40° Northeast 443 510 33,000  Level Jacksonville Center
10:28PM 32.8283 -80.3733 41° Northeast 438 504 33,000  Level Jacksonville Center
10:29PM 32.9203 -80.2819 40° Northeast 438 504 33,000  Level Jacksonville Center
10:30PM 33.0225 -80.1822 39° Northeast 453 521 33,000  Level Jacksonville Center
10:31PM 33.1308 -80.0722 40° Northeast 453 521 33,000  Level Jacksonville Center
10:32PM 33.2228 -79.9800 40° Northeast 448 516 33,000  Level Jacksonville Center
10:33PM 33.3186 -79.8875 39° Northeast 442 509 33,000  Level Jacksonville Center
10:34PM 33.4208 -79.8044 34° Northeast 442 509 33,000  Level Jacksonville Center
10:35PM 33.5253 -79.7233 33° Northeast 442 509 33,000  Level Jacksonville Center
10:36PM 33.6297 -79.6400 34° Northeast 442 509 33,000  Level Jacksonville Center
10:37PM 33.7297 -79.5589 34° Northeast 442 509 33,000  Level Jacksonville Center
10:38PM 33.8319 -79.4775 33° Northeast 442 509 33,000  Level Jacksonville Center
10:40PM 33.9939 -79.3489 33° Northeast 434 499 33,000  Level Washington Center
10:41PM 34.0989 -79.2633 34° Northeast 439 505 33,000  Level Washington Center
10:42PM 34.2014 -79.1825 33° Northeast 439 505 33,000  Level Washington Center
10:43PM 34.3128 -79.0894 35° Northeast 439 505 33,000  Level Washington Center
10:44PM 34.4128 -79.0131 32° Northeast 432 497 33,000  Level Washington Center
10:45PM 34.5156 -78.9292 34° Northeast 432 497 33,000  Level Washington Center
10:46PM 34.6181 -78.8400 36° Northeast 438 504 33,000  Level Washington Center
10:47PM 34.7183 -78.7581 34° Northeast 438 504 33,000  Level Washington Center
10:48PM 34.8206 -78.6733 34° Northeast 438 504 33,000  Level Washington Center
10:49PM 34.9208 -78.5911 34° Northeast 438 504 33,000  Level Washington Center
10:50PM 35.0231 -78.5061 34° Northeast 438 504 33,000  Level Washington Center
10:51PM 35.1233 -78.4208 35° Northeast 433 498 33,000  Level Washington Center
10:52PM 35.2253 -78.3356 34° Northeast 433 498 33,000  Level Washington Center
10:53PM 35.3294 -78.2500 34° Northeast 433 498 33,000  Level Washington Center
10:54PM 35.4231 -78.1714 34° Northeast 440 506 33,000  Level Washington Center
10:55PM 35.5250 -78.0856 34° Northeast 440 506 33,000  Level Washington Center
10:56PM 35.6311 -77.9967 34° Northeast 446 513 33,000  Level Washington Center
10:57PM 35.7331 -77.9103 35° Northeast 446 513 33,000  Level Washington Center
10:58PM 35.8347 -77.8261 34° Northeast 446 513 33,000  Level Washington Center
10:59PM 35.9386 -77.7392 34° Northeast 446 513 33,000  Level Washington Center
11:00PM 36.0403 -77.6469 36° Northeast 446 513 33,000  Level Washington Center
11:01PM 36.1419 -77.5544 36° Northeast 446 513 33,000  Level Washington Center
11:02PM 36.2522 -77.4542 36° Northeast 452 520 33,000  Level Washington Center
11:03PM 36.3389 -77.3686 38° Northeast 447 514 33,000  Level Washington Center
11:04PM 36.4383 -77.2753 37° Northeast 447 514 33,000  Level Washington Center
11:05PM 36.5483 -77.1692 38° Northeast 447 514 33,000  Level Washington Center
11:06PM 36.6475 -77.0778 36° Northeast 442 509 33,000  Level Washington Center
11:07PM 36.7511 -76.9786 37° Northeast 447 514 33,000  Level Washington Center
11:08PM 36.8542 -76.8872 35° Northeast 447 514 33,000  Level Washington Center
11:09PM 36.9575 -76.7928 36° Northeast 452 520 33,000  Level Washington Center
11:10PM 37.0606 -76.6981 36° Northeast 457 526 33,000  Level Washington Center
11:11PM 37.1636 -76.6031 36° Northeast 457 526 33,000  Level Washington Center
11:12PM 37.2603 -76.5156 36° Northeast 462 532 33,000  Level Washington Center
11:13PM 37.3672 -76.4203 35° Northeast 462 532 33,000  Level Washington Center
11:14PM 37.4722 -76.3244 36° Northeast 462 532 33,000  Level Washington Center
11:15PM 37.5792 -76.2258 36° Northeast 462 532 33,000  Level Washington Center
11:16PM 37.6986 -76.1194 35° Northeast 462 532 33,000  Level Washington Center
11:17PM 37.7886 -76.0306 38° Northeast 467 537 33,000  Level Washington Center
11:18PM 37.8953 -75.9286 37° Northeast 467 537 33,000  Level Washington Center
11:19PM 38.0039 -75.8317 35° Northeast 472 543 33,000  Level Washington Center
11:20PM 38.1106 -75.7264 38° Northeast 478 550 33,000  Level Washington Center
11:21PM 38.2189 -75.6261 36° Northeast 483 556 33,000  Level Washington Center
11:22PM 38.3294 -75.5281 35° Northeast 483 556 33,000  Level Washington Center
11:23PM 38.4544 -75.4725 19° North 464 534 33,000  Level Washington Center
11:24PM 38.5794 -75.4164 19° North 469 540 33,000  Level Washington Center
11:25PM 38.6983 -75.3417 26° Northeast 469 540 33,000 -60 Level Washington Center
11:26PM 38.7981 -75.2319 41° Northeast 469 540 32,900  Descending Washington Center
11:27PM 38.9019 -75.1222 39° Northeast 474 545 33,000  Climbing Washington Center
11:28PM 39.0014 -75.0067 42° Northeast 474 545 33,000  Level Washington Center
11:29PM 39.1008 -74.8961 41° Northeast 474 545 33,000  Level Washington Center
11:30PM 39.2022 -74.7828 41° Northeast 474 545 33,000  Level Washington Center
11:31PM 39.3036 -74.6689 41° Northeast 474 545 33,000  Level Washington Center
11:32PM 39.4028 -74.5522 42° Northeast 479 551 33,000  Level Washington Center
11:33PM 39.5058 -74.4378 41° Northeast 479 551 33,000  Level Washington Center
11:34PM 39.6047 -74.3231 42° Northeast 479 551 33,000  Level Washington Center
11:35PM 39.7200 -74.1914 41° Northeast 479 551 33,000  Level Washington Center
11:36PM 39.7747 -74.1272 42° Northeast 483 556 33,000  Level Boston Center
11:37PM 39.8636 -74.0239 42° Northeast 494 568 33,000  Level Boston Center
11:38PM 39.9631 -73.9072 42° Northeast 488 562 33,000  Level Boston Center
11:39PM 40.0647 -73.7875 42° Northeast 488 562 33,000  Level Boston Center
11:40PM 40.1806 -73.6622 40° Northeast 488 562 33,000  Level Boston Center
11:41PM 40.2694 -73.5469 45° Northeast 488 562 33,000  Level Boston Center
11:42PM 40.3725 -73.4289 41° Northeast 494 568 33,000  Level Boston Center
11:43PM 40.4736 -73.3075 42° Northeast 494 568 33,000  Level Boston Center
11:44PM 40.5767 -73.1858 42° Northeast 489 563 33,000 -360 Level Boston Center
11:45PM 40.6794 -73.0614 43° Northeast 489 563 32,300 -1,800 Descending Boston Center
11:46PM 40.7967 -72.9281 41° Northeast 489 563 29,500 -2,700 Descending Boston Center
11:47PM 40.8994 -72.8025 43° Northeast 489 563 27,000 -2,520 Descending Boston Center
11:48PM 40.9933 -72.6847 43° Northeast 484 557 24,500 -2,400 Descending Boston Center
11:49PM 41.0833 -72.5778 42° Northeast 455 524 22,300 -2,100 Descending Boston Center
11:50PM 41.1667 -72.4758 43° Northeast 425 489 20,300 -1,680 Descending Boston Center
11:51PM 41.2394 -72.3850 43° Northeast 400 460 19,000 -1,380 Descending Boston Center
11:52PM 41.3167 -72.2964 41° Northeast 381 438 17,600 -1,320 Descending Boston Center
11:53PM 41.3956 -72.1994 43° Northeast 381 438 16,400 -1,260 Descending Boston Center
11:54PM 41.4892 -72.0825 43° Northeast 372 428 15,000 -720 Descending Boston Center
11:55PM 41.5472 -72.0131 42° Northeast 369 425 15,000 -1,020 Level Boston Center
11:56PM 41.6300 -71.9069 44° Northeast 369 425 13,100 -2,040 Descending Boston Center
11:57PM 41.6944 -71.8256 43° Northeast 369 425 11,000 -1,560 Descending Boston Center
11:58PM 41.7647 -71.7386 43° Northeast 329 379 10,000 -720 Descending Boston Center
11:59PM 41.8225 -71.6656 43° Northeast 310 357 9,600 -900 Descending Boston Center
12:00AM 41.8844 -71.5842 44° Northeast 310 357 8,300 -1,260 Descending Boston Center
12:01AM 41.9506 -71.5050 42° Northeast 296 341 7,100 -600 Descending Boston Center
12:02AM 41.9853 -71.4206 61° Northeast 271 312 7,100 -120 Level Boston Center
12:04AM 42.0667 -71.2000 64° Northeast 283 326 6,800 -600 Descending KA90
12:05AM 42.1000 -71.1000 66° East 290 334 5,200 -1,500 Descending KA90
12:06AM 42.1167 -71.0000 77° East 290 334 3,800 -1,080 Descending KA90
12:07AM 42.1500 -70.9333 56° Northeast 230 265 3,100 -360 Descending KA90
12:08AM 42.2000 -70.8833 37° Northeast 207 238 3,100 -300 Level KA90
12:08AM 42.2333 -70.8833 360° North 196 226 2,600 -840 Descending KA90
12:10AM 42.2833 -70.9000 346° North 169 194 1,500 -660 Descending KA90
12:11AM 42.3167 -70.9333 324° Northwest 137 158 1,200 -480 Descending KA90
12:12AM 42.3333 -70.9667 304° West 112 129 600 -600 Descending KA90
12:14AM 42.3500 -71.0000 North  Level FlightAware Approximate